Time;durP1;ratioP1;P1;durP2;ratioP2;P2;SDS_P1;SDS_P2;PMS_P1;PMS_P2;Temp;Humidity;BMP_temperature;BMP_pressure;BME280_temperature;BME280_humidity;BME280_pressure;Samples;Min_cycle;Max_cycle;Signal;HPM_P1;HPM_P2
2020/12/24 00:00:12;;;;;;;9.55;3.95;;;12.20;99.90;;;;;;5102618;28;20062;-56
2020/12/24 00:03:17;;;;;;;4.85;3.60;;;12.20;99.90;;;;;;5100622;28;20050;-55
2020/12/24 00:06:21;;;;;;;5.72;3.63;;;12.20;99.90;;;;;;5102981;28;20047;-54
2020/12/24 00:09:25;;;;;;;7.25;3.60;;;12.20;99.90;;;;;;5104525;28;20051;-55
2020/12/24 00:12:30;;;;;;;7.00;3.53;;;12.20;99.90;;;;;;5102712;28;20047;-53
2020/12/24 00:15:33;;;;;;;6.57;3.63;;;12.20;99.90;;;;;;5100565;28;20047;-54
2020/12/24 00:18:37;;;;;;;7.85;4.05;;;12.20;99.90;;;;;;5084669;28;20046;-55
2020/12/24 00:21:41;;;;;;;7.63;3.40;;;12.20;99.90;;;;;;5095510;28;20051;-56
2020/12/24 00:24:46;;;;;;;4.20;3.25;;;12.30;99.90;;;;;;5096110;28;20047;-55
2020/12/24 00:27:50;;;;;;;3.47;2.78;;;12.30;99.90;;;;;;5096950;28;20051;-56
2020/12/24 00:30:54;;;;;;;7.22;2.90;;;12.30;99.90;;;;;;5089838;28;20041;-52
2020/12/24 00:33:58;;;;;;;5.55;2.80;;;12.30;99.90;;;;;;5085307;28;20046;-56
2020/12/24 00:37:02;;;;;;;5.15;3.10;;;12.20;99.90;;;;;;5095535;28;20047;-57
2020/12/24 00:40:08;;;;;;;6.68;3.33;;;12.20;99.90;;;;;;5095601;28;20047;-53
2020/12/24 00:43:11;;;;;;;6.25;3.20;;;12.20;99.90;;;;;;5096310;28;20046;-53
2020/12/24 00:46:15;;;;;;;7.13;3.22;;;12.10;99.90;;;;;;5101021;28;20543;-55
2020/12/24 00:49:20;;;;;;;6.78;3.60;;;12.10;99.90;;;;;;5085891;28;20038;-54
2020/12/24 00:52:24;;;;;;;4.75;3.20;;;12.20;99.90;;;;;;5095167;28;20046;-56
2020/12/24 00:55:29;;;;;;;4.82;3.13;;;12.30;99.90;;;;;;5077426;28;20056;-56
2020/12/24 00:58:35;;;;;;;7.25;4.03;;;12.30;99.90;;;;;;5082889;28;20043;-55
2020/12/24 01:01:58;;;;;;;7.15;4.05;;;12.10;99.90;;;;;;5085247;28;20055;-55
2020/12/24 01:05:05;;;;;;;8.35;4.47;;;12.10;99.90;;;;;;5088020;28;20331;-55
2020/12/24 01:08:10;;;;;;;6.60;4.68;;;12.00;99.90;;;;;;5095524;28;20058;-55
2020/12/24 01:11:15;;;;;;;6.78;4.55;;;11.90;99.90;;;;;;5094258;28;20043;-55
2020/12/24 01:14:19;;;;;;;7.47;5.03;;;11.80;99.90;;;;;;5095217;28;20043;-56
2020/12/24 01:17:23;;;;;;;9.57;5.18;;;11.70;99.90;;;;;;5100279;28;20051;-54
2020/12/24 01:20:27;;;;;;;6.13;3.65;;;11.60;99.90;;;;;;5085899;28;20038;-55
2020/12/24 01:23:31;;;;;;;6.43;4.72;;;11.60;99.90;;;;;;5099132;28;20505;-56
2020/12/24 01:26:35;;;;;;;6.93;5.10;;;11.60;99.90;;;;;;5099340;28;20054;-56
2020/12/24 01:29:39;;;;;;;9.65;5.93;;;11.50;99.90;;;;;;5090862;28;20048;-56
2020/12/24 01:32:43;;;;;;;8.73;5.70;;;11.40;99.90;;;;;;5092797;28;20048;-53
2020/12/24 01:35:47;;;;;;;7.38;5.18;;;11.30;99.90;;;;;;5087359;28;20047;-56
2020/12/24 01:38:51;;;;;;;9.35;6.15;;;11.40;99.90;;;;;;5072661;28;20055;-55
2020/12/24 01:41:55;;;;;;;6.68;4.80;;;11.30;99.90;;;;;;5071562;28;20505;-56
2020/12/24 01:45:00;;;;;;;9.20;5.05;;;11.40;99.90;;;;;;5072425;28;20414;-54
2020/12/24 01:48:05;;;;;;;9.60;5.00;;;11.40;99.90;;;;;;5071898;28;20039;-55
2020/12/24 01:51:13;;;;;;;7.00;5.13;;;11.40;99.90;;;;;;5072087;28;20044;-55
2020/12/24 01:54:21;;;;;;;7.22;5.55;;;11.40;99.90;;;;;;5071992;28;20039;-56
2020/12/24 01:57:25;;;;;;;6.97;5.22;;;11.40;99.90;;;;;;5071922;28;20043;-56
2020/12/24 02:00:29;;;;;;;7.50;5.72;;;11.40;99.90;;;;;;5071915;28;20047;-55
2020/12/24 02:03:34;;;;;;;7.50;5.88;;;11.40;99.90;;;;;;5071581;28;20059;-57
2020/12/24 02:06:40;;;;;;;7.57;5.28;;;11.40;99.90;;;;;;5071531;28;20043;-54
2020/12/24 02:09:46;;;;;;;7.15;5.40;;;11.40;99.90;;;;;;5071925;28;20533;-55
2020/12/24 02:12:50;;;;;;;8.93;5.40;;;11.40;99.90;;;;;;5070612;28;20044;-55
2020/12/24 02:15:54;;;;;;;9.52;5.80;;;11.40;99.90;;;;;;5071993;28;20198;-57
2020/12/24 02:18:58;;;;;;;12.73;6.43;;;11.40;99.90;;;;;;5071643;28;20059;-56
2020/12/24 02:22:02;;;;;;;11.25;5.90;;;11.40;99.90;;;;;;5071583;28;20051;-54
2020/12/24 02:25:06;;;;;;;7.68;5.57;;;11.40;99.90;;;;;;5086576;28;20040;-55
2020/12/24 02:28:11;;;;;;;8.13;6.18;;;11.40;99.90;;;;;;5071549;28;20051;-59
2020/12/24 02:31:15;;;;;;;8.73;5.90;;;11.40;99.90;;;;;;5070894;28;20055;-56
2020/12/24 02:34:20;;;;;;;8.63;6.10;;;11.40;99.90;;;;;;5071642;28;20040;-54
2020/12/24 02:37:24;;;;;;;9.98;4.95;;;11.40;99.90;;;;;;5071764;28;20040;-55
2020/12/24 02:40:29;;;;;;;10.32;5.53;;;11.50;99.90;;;;;;5071054;28;20048;-54
2020/12/24 02:43:33;;;;;;;7.85;4.70;;;11.50;99.90;;;;;;5070636;28;20044;-54
2020/12/24 02:46:39;;;;;;;8.57;4.80;;;11.50;99.90;;;;;;5071228;28;20059;-56
2020/12/24 02:49:44;;;;;;;8.13;4.47;;;11.50;99.90;;;;;;5071604;28;20043;-55
2020/12/24 02:52:48;;;;;;;6.22;4.65;;;11.50;99.90;;;;;;5070949;28;20509;-55
2020/12/24 02:55:53;;;;;;;8.40;4.18;;;11.50;99.90;;;;;;5071182;28;20040;-58
2020/12/24 02:58:58;;;;;;;7.80;3.70;;;11.50;99.90;;;;;;5070919;28;20043;-55
2020/12/24 03:02:02;;;;;;;4.68;3.67;;;11.50;99.90;;;;;;5070520;28;20646;-55
2020/12/24 03:05:07;;;;;;;6.00;3.10;;;11.60;99.90;;;;;;5076970;28;20043;-55
2020/12/24 03:08:11;;;;;;;5.20;3.20;;;11.60;99.90;;;;;;5077810;28;20063;-55
2020/12/24 03:11:16;;;;;;;6.15;3.13;;;11.60;99.90;;;;;;5070109;28;20035;-55
2020/12/24 03:14:20;;;;;;;3.08;2.65;;;11.50;99.90;;;;;;5070503;28;20509;-55
2020/12/24 03:17:24;;;;;;;6.82;3.10;;;11.60;99.90;;;;;;5070017;28;20035;-57
2020/12/24 03:20:28;;;;;;;6.70;3.88;;;11.60;99.90;;;;;;5069946;28;20040;-55
2020/12/24 03:23:32;;;;;;;5.82;3.10;;;11.60;99.90;;;;;;5076549;28;20039;-55
2020/12/24 03:26:36;;;;;;;3.55;2.85;;;11.50;99.90;;;;;;5080542;28;20047;-55
2020/12/24 03:29:40;;;;;;;4.88;3.38;;;11.50;99.90;;;;;;5070679;28;20039;-58
2020/12/24 03:32:44;;;;;;;5.95;3.60;;;11.40;99.90;;;;;;5069558;28;20119;-55
2020/12/24 03:35:49;;;;;;;7.68;3.50;;;11.40;99.90;;;;;;5070461;28;20043;-55
2020/12/24 03:38:52;;;;;;;6.20;3.75;;;11.30;99.90;;;;;;5070188;28;20047;-55
2020/12/24 03:41:56;;;;;;;5.18;3.22;;;11.30;99.90;;;;;;5069765;28;20517;-56
2020/12/24 03:45:00;;;;;;;4.18;3.60;;;11.30;99.90;;;;;;5069196;28;20047;-56
2020/12/24 03:48:04;;;;;;;5.22;2.95;;;11.30;99.90;;;;;;5069556;28;20035;-60
2020/12/24 03:51:08;;;;;;;5.05;3.20;;;11.30;99.90;;;;;;5068776;28;20051;-57
2020/12/24 03:54:12;;;;;;;6.15;3.30;;;11.30;99.90;;;;;;5069621;28;20048;-58
2020/12/24 03:57:17;;;;;;;3.90;3.30;;;11.30;99.90;;;;;;5069582;28;20040;-59
2020/12/24 04:00:21;;;;;;;4.72;3.25;;;11.20;99.90;;;;;;5069661;28;20592;-56
2020/12/24 04:03:25;;;;;;;5.25;3.50;;;11.20;99.90;;;;;;5069021;28;20059;-56
2020/12/24 04:06:29;;;;;;;4.18;3.00;;;11.30;99.90;;;;;;5069732;28;20055;-58
2020/12/24 04:09:33;;;;;;;5.30;3.70;;;11.30;99.90;;;;;;5069573;28;20052;-55
2020/12/24 04:12:38;;;;;;;4.95;3.78;;;11.20;99.90;;;;;;5069361;28;20039;-55
2020/12/24 04:15:41;;;;;;;5.40;3.53;;;11.30;99.90;;;;;;5069797;28;20039;-57
2020/12/24 04:18:46;;;;;;;5.57;3.42;;;11.20;99.90;;;;;;5069376;28;20055;-56
2020/12/24 04:21:50;;;;;;;5.22;3.78;;;11.20;99.90;;;;;;5069068;28;20049;-55
2020/12/24 04:24:55;;;;;;;6.80;3.78;;;11.20;99.90;;;;;;5069379;28;20047;-55
2020/12/24 04:28:00;;;;;;;5.28;3.10;;;11.20;99.90;;;;;;5069571;28;20071;-56
2020/12/24 04:31:04;;;;;;;6.28;3.60;;;11.30;99.90;;;;;;5069385;28;20051;-58
2020/12/24 04:34:10;;;;;;;5.70;4.22;;;11.30;99.90;;;;;;5056380;28;20043;-56
2020/12/24 04:37:17;;;;;;;5.07;3.95;;;11.20;99.90;;;;;;5069431;28;20502;-55
2020/12/24 04:40:21;;;;;;;5.95;3.80;;;11.20;99.90;;;;;;5069145;28;20051;-57
2020/12/24 04:43:27;;;;;;;6.63;3.55;;;11.20;99.90;;;;;;5069498;28;20047;-55
2020/12/24 04:46:33;;;;;;;5.97;4.07;;;11.20;99.90;;;;;;5069387;28;20039;-56
2020/12/24 04:49:40;;;;;;;7.20;3.95;;;11.10;99.90;;;;;;5069818;28;20395;-55
2020/12/24 04:52:45;;;;;;;8.02;5.05;;;11.10;99.90;;;;;;5069167;28;20067;-55
2020/12/24 04:55:50;;;;;;;5.38;4.30;;;11.10;99.90;;;;;;5073277;28;20063;-55
2020/12/24 04:58:54;;;;;;;5.57;4.70;;;11.20;99.90;;;;;;5075723;28;20063;-57
2020/12/24 05:02:01;;;;;;;8.27;5.15;;;11.20;99.90;;;;;;5075163;28;20055;-58
2020/12/24 05:05:05;;;;;;;7.05;4.43;;;11.20;99.90;;;;;;5075753;28;20043;-53
2020/12/24 05:08:09;;;;;;;9.10;4.60;;;11.20;99.90;;;;;;5075792;28;20044;-55
2020/12/24 05:11:14;;;;;;;7.55;3.80;;;11.20;99.90;;;;;;5075226;28;20043;-56
2020/12/24 05:14:20;;;;;;;5.25;3.88;;;11.20;99.90;;;;;;5075231;28;20055;-55
2020/12/24 05:17:25;;;;;;;6.15;4.70;;;11.20;99.90;;;;;;5075541;28;20036;-59
2020/12/24 05:20:38;;;;;;;8.05;3.80;;;11.30;99.90;;;;;;5075329;28;20056;-57
2020/12/24 05:23:43;;;;;;;6.70;3.67;;;11.30;99.90;;;;;;5081040;28;20059;-56
2020/12/24 05:26:47;;;;;;;4.72;3.80;;;11.30;99.90;;;;;;5075566;28;20471;-59
2020/12/24 05:29:52;;;;;;;6.57;4.03;;;11.30;99.90;;;;;;5075303;28;20047;-55
2020/12/24 05:32:55;;;;;;;7.05;4.22;;;11.30;99.90;;;;;;5075135;28;20632;-53
2020/12/24 05:36:21;;;;;;;4.65;3.85;;;11.30;99.90;;;;;;5075153;28;20513;-56
2020/12/24 05:39:25;;;;;;;5.05;3.33;;;11.30;99.90;;;;;;5076014;28;20051;-55
2020/12/24 05:42:30;;;;;;;5.93;3.47;;;11.30;99.90;;;;;;5075405;28;20055;-56
2020/12/24 05:45:34;;;;;;;5.10;2.80;;;11.30;99.90;;;;;;5075435;28;20059;-56
2020/12/24 05:48:38;;;;;;;4.38;3.10;;;11.30;99.90;;;;;;5075713;28;20406;-56
2020/12/24 05:51:47;;;;;;;3.13;2.83;;;11.30;99.90;;;;;;5075487;28;20346;-55
2020/12/24 05:54:52;;;;;;;4.13;3.30;;;11.30;99.90;;;;;;5075503;28;20048;-56
2020/12/24 05:57:58;;;;;;;7.65;3.00;;;11.40;99.90;;;;;;5075396;28;20082;-55
2020/12/24 06:01:02;;;;;;;3.58;2.63;;;11.30;99.90;;;;;;5076291;28;20051;-58
2020/12/24 06:04:09;;;;;;;4.32;2.70;;;11.40;99.90;;;;;;5082386;28;20067;-56
2020/12/24 06:07:20;;;;;;;3.67;2.55;;;11.40;99.90;;;;;;5072915;28;20052;-57
2020/12/24 06:10:46;;;;;;;4.45;2.00;;;11.40;99.90;;;;;;5072031;28;20055;-54
2020/12/24 06:13:57;;;;;;;4.85;2.40;;;11.40;99.90;;;;;;5060077;28;20047;-55
2020/12/24 06:17:06;;;;;;;3.53;2.72;;;11.40;99.90;;;;;;5070984;28;20115;-55
2020/12/24 06:20:17;;;;;;;2.70;2.30;;;11.30;99.90;;;;;;5071568;28;20047;-55
2020/12/24 06:23:22;;;;;;;4.60;2.30;;;11.30;99.90;;;;;;5071817;28;20039;-57
2020/12/24 06:26:31;;;;;;;4.97;2.47;;;11.30;99.90;;;;;;5071490;28;20246;-55
2020/12/24 06:29:39;;;;;;;5.53;2.30;;;11.40;99.90;;;;;;5071739;28;20032;-58
2020/12/24 06:32:49;;;;;;;4.70;2.28;;;11.30;99.90;;;;;;5071371;28;20513;-56
2020/12/24 06:35:54;;;;;;;4.00;2.40;;;11.40;99.90;;;;;;5071151;28;20043;-55
2020/12/24 06:38:59;;;;;;;6.68;2.65;;;11.40;99.90;;;;;;5071460;28;20222;-55
2020/12/24 06:42:03;;;;;;;3.70;2.30;;;11.40;99.90;;;;;;5070773;28;20036;-56
2020/12/24 06:45:35;;;;;;;7.85;2.30;;;11.40;99.90;;;;;;5071275;28;20631;-55
2020/12/24 06:48:40;;;;;;;3.38;2.50;;;11.50;99.90;;;;;;5071337;28;20098;-55
2020/12/24 06:51:49;;;;;;;4.00;2.15;;;11.50;99.90;;;;;;5074519;28;20048;-56
2020/12/24 06:55:16;;;;;;;3.80;2.40;;;11.50;99.90;;;;;;5071396;28;20064;-57
2020/12/24 06:58:47;;;;;;;5.55;2.53;;;11.50;99.90;;;;;;5070944;28;20040;-57
2020/12/24 07:02:02;;;;;;;6.93;2.10;;;11.50;99.90;;;;;;5074038;28;20051;-55
2020/12/24 07:05:07;;;;;;;6.57;2.40;;;11.60;99.90;;;;;;5097934;28;20501;-55
2020/12/24 07:08:30;;;;;;;3.42;1.90;;;11.70;99.90;;;;;;5100558;28;20035;-56
2020/12/24 07:11:45;;;;;;;3.22;2.13;;;11.70;99.90;;;;;;5095830;28;20039;-56
2020/12/24 07:14:49;;;;;;;2.38;2.08;;;11.80;99.90;;;;;;5096923;28;20063;-59
2020/12/24 07:17:53;;;;;;;3.58;1.90;;;11.80;99.90;;;;;;5093586;28;20398;-55
2020/12/24 07:21:03;;;;;;;4.25;2.17;;;11.80;99.90;;;;;;5097221;28;20031;-56
2020/12/24 07:24:08;;;;;;;4.43;1.80;;;11.90;99.90;;;;;;5087365;28;20275;-57
2020/12/24 07:27:13;;;;;;;4.57;2.30;;;12.00;99.90;;;;;;5075447;28;20047;-58
2020/12/24 07:30:21;;;;;;;2.67;1.90;;;12.00;99.90;;;;;;5085347;28;20062;-56
2020/12/24 07:33:26;;;;;;;1.75;1.60;;;12.00;99.90;;;;;;5103382;28;20039;-56
2020/12/24 07:36:30;;;;;;;3.65;2.35;;;12.00;99.90;;;;;;5079362;28;20067;-58
2020/12/24 07:39:37;;;;;;;4.63;2.78;;;12.00;99.90;;;;;;5078949;28;20047;-58
2020/12/24 07:42:41;;;;;;;5.20;2.47;;;11.90;99.90;;;;;;5085106;28;20043;-54
2020/12/24 07:45:45;;;;;;;5.63;2.15;;;12.00;99.90;;;;;;5092892;28;20774;-58
2020/12/24 07:48:49;;;;;;;2.67;1.75;;;12.00;99.90;;;;;;5104643;28;20053;-57
2020/12/24 07:51:58;;;;;;;5.25;2.35;;;12.00;99.90;;;;;;5108471;28;20038;-58
2020/12/24 07:55:09;;;;;;;3.85;2.10;;;12.10;99.90;;;;;;5095497;28;20481;-59
2020/12/24 07:58:15;;;;;;;4.47;2.20;;;12.10;99.90;;;;;;5091681;28;20035;-58
2020/12/24 08:01:20;;;;;;;5.82;2.13;;;12.10;99.90;;;;;;5088643;28;20065;-55
2020/12/24 08:04:24;;;;;;;6.03;1.90;;;12.10;99.90;;;;;;5078761;28;20044;-59
2020/12/24 08:07:29;;;;;;;3.92;2.30;;;12.20;99.90;;;;;;5089288;28;20055;-58
2020/12/24 08:10:41;;;;;;;5.28;2.20;;;12.20;99.90;;;;;;5091924;28;20039;-58
2020/12/24 08:13:46;;;;;;;;;;;12.20;99.90;;;;;;5087999;28;20047;-56
2020/12/24 08:16:52;;;;;;;3.15;2.00;;;12.20;99.90;;;;;;5092552;28;19915;-59
2020/12/24 08:20:07;;;;;;;5.82;2.17;;;12.10;99.90;;;;;;5077108;28;20383;-56
2020/12/24 08:23:21;;;;;;;6.40;2.17;;;12.10;99.90;;;;;;5094333;28;20047;-58
2020/12/24 08:26:26;;;;;;;3.55;1.90;;;12.10;99.90;;;;;;5098425;28;20121;-59
2020/12/24 08:29:30;;;;;;;5.07;2.78;;;12.20;99.90;;;;;;5102364;28;20054;-56
2020/12/24 08:32:37;;;;;;;2.42;2.22;;;12.20;99.90;;;;;;5104914;28;20043;-55
2020/12/24 08:35:42;;;;;;;4.05;2.25;;;12.10;99.90;;;;;;5076017;28;20043;-58
2020/12/24 08:38:46;;;;;;;5.88;2.03;;;12.20;99.90;;;;;;5088833;28;20043;-55
2020/12/24 08:41:53;;;;;;;3.25;2.03;;;12.30;99.90;;;;;;5087758;28;20402;-55
2020/12/24 08:44:57;;;;;;;4.57;2.13;;;12.30;99.90;;;;;;5089704;28;20039;-55
2020/12/24 08:48:01;;;;;;;3.63;2.42;;;12.30;99.90;;;;;;5094815;28;20048;-55
2020/12/24 08:51:18;;;;;;;5.18;2.30;;;12.30;99.90;;;;;;5098651;28;20039;-57
2020/12/24 08:54:22;;;;;;;6.72;2.13;;;12.30;99.90;;;;;;5088920;28;20047;-55
2020/12/24 08:57:26;;;;;;;4.45;2.15;;;12.20;99.90;;;;;;5093174;28;20044;-57
2020/12/24 09:00:30;;;;;;;3.78;2.30;;;12.20;99.90;;;;;;5100211;28;20047;-57
2020/12/24 09:03:34;;;;;;;3.05;2.28;;;12.30;99.90;;;;;;5081710;28;20043;-58
2020/12/24 09:06:38;;;;;;;3.88;2.15;;;12.40;99.90;;;;;;5091027;28;20066;-59
2020/12/24 09:09:43;;;;;;;5.28;2.13;;;12.40;99.90;;;;;;5083947;28;20047;-56
2020/12/24 09:12:58;;;;;;;5.22;2.53;;;12.60;99.90;;;;;;5091111;28;20039;-57
2020/12/24 09:16:11;;;;;;;3.35;1.77;;;12.50;99.90;;;;;;5068223;28;20075;-58
2020/12/24 09:19:16;;;;;;;4.45;1.95;;;12.50;99.90;;;;;;5068034;28;20047;-55
2020/12/24 09:22:21;;;;;;;4.72;2.10;;;12.50;99.90;;;;;;5087799;28;20039;-59
2020/12/24 09:25:32;;;;;;;4.25;2.20;;;12.50;99.90;;;;;;5076785;28;20402;-57
2020/12/24 09:28:37;;;;;;;3.93;1.93;;;12.50;99.90;;;;;;5083478;28;20636;-56
2020/12/24 09:31:41;;;;;;;3.50;2.35;;;12.40;99.90;;;;;;5088310;28;20039;-55
2020/12/24 09:34:45;;;;;;;6.43;2.35;;;12.30;99.90;;;;;;5080916;28;20046;-57
2020/12/24 09:37:51;;;;;;;7.40;1.92;;;12.30;99.90;;;;;;5085148;28;20031;-54
2020/12/24 09:40:55;;;;;;;4.45;2.20;;;12.30;99.90;;;;;;5087591;28;20421;-54
2020/12/24 09:43:59;;;;;;;6.95;2.85;;;12.30;99.90;;;;;;5091820;28;20782;-57
2020/12/24 09:47:03;;;;;;;5.72;3.30;;;12.30;99.90;;;;;;5089802;28;20047;-56
2020/12/24 09:50:07;;;;;;;5.43;3.05;;;12.20;99.90;;;;;;5091264;28;20035;-57
2020/12/24 09:53:11;;;;;;;7.28;3.00;;;12.20;99.90;;;;;;5094949;28;20039;-58
2020/12/24 09:56:19;;;;;;;7.53;3.75;;;12.30;99.90;;;;;;5093339;28;20035;-55
2020/12/24 09:59:23;;;;;;;10.07;2.70;;;12.30;99.90;;;;;;5095659;28;20038;-57
2020/12/24 10:02:27;;;;;;;5.88;2.90;;;12.30;99.90;;;;;;5091885;28;20035;-56
2020/12/24 10:05:31;;;;;;;4.07;2.63;;;12.20;99.90;;;;;;5096052;28;20059;-58
2020/12/24 10:08:35;;;;;;;9.57;3.00;;;12.20;99.90;;;;;;5094743;28;20399;-58
2020/12/24 10:11:45;;;;;;;18.90;11.95;;;12.30;99.90;;;;;;5092362;28;20050;-58
2020/12/24 10:14:50;;;;;;;6.00;2.50;;;12.40;99.90;;;;;;5080991;28;20047;-56
2020/12/24 10:17:56;;;;;;;12.00;8.27;;;12.30;99.90;;;;;;5103026;28;20046;-56
2020/12/24 10:21:01;;;;;;;4.15;2.85;;;12.30;99.90;;;;;;5089409;28;20052;-57
2020/12/24 10:24:05;;;;;;;4.72;2.72;;;12.30;99.90;;;;;;5097361;28;20062;-57
2020/12/24 10:27:13;;;;;;;7.10;4.32;;;12.40;99.90;;;;;;5090969;28;20059;-57
2020/12/24 10:30:17;;;;;;;7.25;2.55;;;12.40;99.90;;;;;;5091013;28;20052;-55
2020/12/24 10:33:22;;;;;;;5.47;2.47;;;12.30;99.90;;;;;;5097654;28;20409;-58
2020/12/24 10:36:27;;;;;;;6.45;3.67;;;12.40;99.90;;;;;;5098112;28;20043;-61
2020/12/24 10:39:32;;;;;;;3.50;2.70;;;12.30;99.90;;;;;;5095307;28;20056;-57
2020/12/24 10:42:38;;;;;;;4.55;2.85;;;12.30;99.90;;;;;;5087479;28;20043;-59
2020/12/24 10:45:42;;;;;;;5.15;3.22;;;12.30;99.90;;;;;;5095572;28;20043;-55
2020/12/24 10:48:46;;;;;;;6.25;3.08;;;12.10;99.90;;;;;;5092546;28;20394;-60
2020/12/24 10:51:51;;;;;;;4.60;2.75;;;12.20;99.90;;;;;;5093313;28;20054;-59
2020/12/24 10:54:55;;;;;;;5.82;2.72;;;12.20;99.90;;;;;;5087547;28;20047;-56
2020/12/24 10:58:00;;;;;;;7.00;4.03;;;12.30;99.90;;;;;;5086624;28;20047;-59
2020/12/24 11:01:09;;;;;;;6.47;3.25;;;12.40;99.90;;;;;;5087714;28;20043;-57
2020/12/24 11:04:14;;;;;;;3.97;2.80;;;12.40;99.90;;;;;;5086962;28;20536;-61
2020/12/24 11:07:18;;;;;;;5.20;2.63;;;12.40;99.90;;;;;;5084633;28;20031;-55
2020/12/24 11:10:22;;;;;;;4.32;2.90;;;12.40;99.90;;;;;;5088189;28;20054;-58
2020/12/24 11:13:26;;;;;;;20.33;9.95;;;12.40;99.90;;;;;;5086725;28;20039;-59
2020/12/24 11:16:30;;;;;;;14.43;9.68;;;12.40;99.90;;;;;;5082873;28;20070;-59
2020/12/24 11:19:35;;;;;;;8.43;5.95;;;12.40;99.90;;;;;;5086950;28;20039;-57
2020/12/24 11:22:39;;;;;;;4.78;2.95;;;12.40;99.90;;;;;;5095127;28;20047;-59
2020/12/24 11:25:43;;;;;;;8.52;5.43;;;12.40;99.90;;;;;;5089403;28;20043;-55
2020/12/24 11:28:47;;;;;;;4.70;3.05;;;12.50;99.90;;;;;;5079875;28;20047;-58
2020/12/24 11:31:57;;;;;;;6.55;3.20;;;12.60;99.90;;;;;;5079531;28;20056;-53
2020/12/24 11:35:02;;;;;;;7.53;3.42;;;12.60;99.90;;;;;;5069445;28;20043;-58
2020/12/24 11:38:06;;;;;;;5.45;2.50;;;12.60;99.90;;;;;;5084449;28;20043;-56
2020/12/24 11:41:24;;;;;;;6.10;3.35;;;12.60;99.90;;;;;;5075335;28;20048;-57
2020/12/24 11:44:28;;;;;;;6.28;3.45;;;12.60;99.90;;;;;;5089022;28;20031;-56
2020/12/24 11:47:36;;;;;;;5.30;2.90;;;12.70;99.90;;;;;;5091682;28;20043;-55
2020/12/24 11:50:41;;;;;;;5.45;3.42;;;12.80;99.90;;;;;;5089102;28;20072;-57
2020/12/24 11:53:48;;;;;;;6.28;2.60;;;12.80;99.90;;;;;;5084145;28;20043;-56
2020/12/24 11:56:53;;;;;;;7.60;2.85;;;12.80;99.90;;;;;;5090530;28;20043;-60
2020/12/24 11:59:57;;;;;;;10.02;5.22;;;12.80;99.90;;;;;;5088124;28;20544;-56
2020/12/24 12:03:01;;;;;;;6.53;4.13;;;12.90;99.90;;;;;;5091087;28;20398;-59
2020/12/24 12:06:06;;;;;;;7.00;2.83;;;13.00;99.90;;;;;;5090458;28;20035;-58
2020/12/24 12:09:11;;;;;;;16.58;12.43;;;12.90;99.90;;;;;;5092478;28;20043;-58
2020/12/24 12:12:15;;;;;;;10.25;7.28;;;12.90;99.90;;;;;;5094981;28;20026;-58
2020/12/24 12:15:19;;;;;;;7.53;4.78;;;12.90;99.90;;;;;;5083783;28;20047;-55
2020/12/24 12:18:23;;;;;;;8.32;4.65;;;12.90;99.90;;;;;;5074120;28;20048;-58
2020/12/24 12:21:27;;;;;;;5.13;2.90;;;12.90;99.90;;;;;;5088703;28;20051;-60
2020/12/24 12:24:32;;;;;;;6.13;3.17;;;12.90;99.90;;;;;;5070627;28;20052;-60
2020/12/24 12:27:38;;;;;;;6.72;3.95;;;13.00;99.90;;;;;;5084703;28;20039;-58
2020/12/24 12:30:43;;;;;;;10.80;3.38;;;13.00;99.90;;;;;;5108911;28;20042;-60
2020/12/24 12:33:51;;;;;;;7.53;2.60;;;13.10;99.90;;;;;;5078511;28;20083;-56
2020/12/24 12:36:55;;;;;;;5.90;2.47;;;13.10;99.90;;;;;;5075155;28;20039;-60
2020/12/24 12:39:59;;;;;;;10.55;4.97;;;13.00;99.90;;;;;;5090421;28;20051;-57
2020/12/24 12:43:03;;;;;;;5.25;3.25;;;12.90;99.90;;;;;;5081788;28;20043;-58
2020/12/24 12:46:28;;;;;;;5.20;3.05;;;12.90;99.90;;;;;;5082254;28;20035;-57
2020/12/24 12:49:33;;;;;;;13.35;4.82;;;12.90;99.90;;;;;;5088914;28;20035;-58
2020/12/24 12:52:38;;;;;;;7.85;3.83;;;13.00;99.90;;;;;;5102759;28;20043;-59
2020/12/24 12:55:42;;;;;;;9.93;3.10;;;13.00;99.90;;;;;;5097445;28;20066;-59
2020/12/24 12:58:46;;;;;;;4.72;2.72;;;13.00;99.90;;;;;;5083950;28;20056;-59
2020/12/24 13:01:52;;;;;;;7.00;2.88;;;13.00;99.90;;;;;;5097341;28;20034;-59
2020/12/24 13:04:56;;;;;;;6.28;3.35;;;13.00;99.90;;;;;;5097624;28;20042;-55
2020/12/24 13:08:01;;;;;;;7.80;2.83;;;13.10;99.90;;;;;;5096233;28;20525;-58
2020/12/24 13:11:08;;;;;;;7.75;4.18;;;13.10;99.90;;;;;;5085413;28;20043;-57
2020/12/24 13:14:31;;;;;;;7.05;2.72;;;13.10;99.90;;;;;;5078761;28;20040;-58
2020/12/24 13:17:35;;;;;;;5.53;4.03;;;13.00;99.90;;;;;;5086730;28;20043;-57
2020/12/24 13:20:39;;;;;;;8.27;3.40;;;13.00;99.90;;;;;;5097933;28;20034;-58
2020/12/24 13:23:43;;;;;;;6.60;3.15;;;13.00;99.90;;;;;;5094827;28;20051;-57
2020/12/24 13:26:55;;;;;;;8.93;3.10;;;13.00;99.90;;;;;;5081967;28;20051;-56
2020/12/24 13:29:59;;;;;;;11.70;4.28;;;13.00;99.90;;;;;;5099431;28;20043;-55
2020/12/24 13:33:03;;;;;;;9.38;3.10;;;13.10;99.90;;;;;;5091637;28;20093;-59
2020/12/24 13:36:08;;;;;;;17.17;8.13;;;13.00;99.90;;;;;;5089449;28;20047;-58
2020/12/24 13:39:12;;;;;;;8.63;3.70;;;13.00;99.90;;;;;;5092153;28;20043;-58
2020/12/24 13:42:21;;;;;;;8.13;3.05;;;13.00;99.90;;;;;;5093432;28;20404;-59
2020/12/24 13:45:25;;;;;;;10.95;3.55;;;13.10;99.90;;;;;;5096970;28;20055;-55
2020/12/24 13:48:29;;;;;;;12.32;6.80;;;13.00;99.90;;;;;;5093702;28;20062;-60
2020/12/24 13:51:33;;;;;;;6.00;3.00;;;13.00;99.90;;;;;;5092506;28;20058;-58
2020/12/24 13:54:37;;;;;;;6.60;3.65;;;13.10;99.90;;;;;;5096026;28;20066;-58
2020/12/24 13:57:44;;;;;;;4.57;3.10;;;13.10;99.90;;;;;;5059406;28;20047;-55
2020/12/24 14:00:49;;;;;;;10.65;3.45;;;13.10;99.90;;;;;;5073065;28;20217;-59
2020/12/24 14:03:53;;;;;;;7.65;3.45;;;13.10;99.90;;;;;;5074756;28;20067;-58
2020/12/24 14:07:00;;;;;;;11.20;3.40;;;13.00;99.90;;;;;;5083238;28;20039;-59
2020/12/24 14:10:04;;;;;;;13.27;4.25;;;13.10;99.90;;;;;;5092782;28;20039;-57
2020/12/24 14:13:08;;;;;;;6.65;3.30;;;13.10;99.90;;;;;;5083149;28;20051;-55
2020/12/24 14:16:16;;;;;;;8.20;3.72;;;13.00;99.90;;;;;;5094622;28;20050;-58
2020/12/24 14:19:21;;;;;;;9.48;4.03;;;13.00;99.90;;;;;;5089234;28;20031;-57
2020/12/24 14:22:25;;;;;;;15.68;5.53;;;13.00;99.90;;;;;;5089545;28;20370;-60
2020/12/24 14:25:32;;;;;;;9.48;4.70;;;13.00;99.90;;;;;;5098645;28;20059;-55
2020/12/24 14:28:38;;;;;;;6.75;3.38;;;13.00;99.90;;;;;;5097993;28;20051;-59
2020/12/24 14:31:43;;;;;;;7.43;3.85;;;12.90;99.90;;;;;;5098391;28;20062;-58
2020/12/24 14:34:47;;;;;;;9.02;3.40;;;12.90;99.90;;;;;;5096870;28;20114;-56
2020/12/24 14:37:51;;;;;;;8.63;3.65;;;12.90;99.90;;;;;;5096885;28;20039;-55
2020/12/24 14:40:55;;;;;;;9.05;3.83;;;12.90;99.90;;;;;;5100422;28;20519;-59
2020/12/24 14:44:01;;;;;;;9.65;4.65;;;13.00;99.90;;;;;;5097625;28;20051;-56
2020/12/24 14:47:05;;;;;;;10.13;4.30;;;13.00;99.90;;;;;;5101273;28;20038;-57
2020/12/24 14:50:09;;;;;;;8.63;5.10;;;12.90;99.90;;;;;;5095117;28;20051;-59
2020/12/24 14:53:14;;;;;;;5.57;3.15;;;13.00;99.90;;;;;;5097690;28;20047;-58
2020/12/24 14:56:23;;;;;;;7.80;3.67;;;12.90;99.90;;;;;;5096908;28;20047;-56
2020/12/24 14:59:27;;;;;;;9.38;4.03;;;12.90;99.90;;;;;;5095389;28;20039;-59
2020/12/24 15:02:31;;;;;;;9.32;3.63;;;12.90;99.90;;;;;;5095426;28;20047;-59
2020/12/24 15:05:36;;;;;;;15.85;5.13;;;12.90;99.90;;;;;;5092302;28;20031;-59
2020/12/24 15:08:40;;;;;;;13.50;7.25;;;12.90;99.90;;;;;;5095462;28;20043;-56
2020/12/24 15:11:44;;;;;;;7.85;3.53;;;12.90;99.90;;;;;;5090465;28;20406;-55
2020/12/24 15:14:48;;;;;;;15.85;4.50;;;12.80;99.90;;;;;;5095136;28;20050;-59
2020/12/24 15:17:53;;;;;;;8.52;3.95;;;12.80;99.90;;;;;;5099908;28;20043;-58
2020/12/24 15:20:58;;;;;;;9.32;3.50;;;12.80;99.90;;;;;;5095971;28;20517;-56
2020/12/24 15:24:03;;;;;;;10.15;3.60;;;12.90;99.90;;;;;;5093312;28;20050;-57
2020/12/24 15:27:07;;;;;;;10.43;4.20;;;12.70;99.90;;;;;;5096588;28;20063;-55
2020/12/24 15:30:11;;;;;;;11.13;4.10;;;12.70;99.90;;;;;;5101001;28;20039;-58
2020/12/24 15:33:15;;;;;;;12.20;6.60;;;12.80;99.90;;;;;;5096909;28;20406;-59
2020/12/24 15:36:20;;;;;;;18.02;13.27;;;12.80;99.90;;;;;;5097907;28;20548;-58
2020/12/24 15:39:24;;;;;;;11.20;5.07;;;12.80;99.90;;;;;;5089668;28;20058;-55
2020/12/24 15:42:28;;;;;;;10.85;5.22;;;12.80;99.90;;;;;;5095016;28;20386;-56
2020/12/24 15:45:33;;;;;;;10.77;4.63;;;12.70;99.90;;;;;;5100724;28;20047;-55
2020/12/24 15:48:37;;;;;;;9.20;4.68;;;12.80;99.90;;;;;;5096330;28;20066;-58
2020/12/24 15:51:43;;;;;;;10.85;5.85;;;12.90;99.90;;;;;;5091813;28;20050;-56
2020/12/24 15:54:47;;;;;;;13.25;4.57;;;12.90;99.90;;;;;;5089296;28;20048;-57
2020/12/24 15:57:52;;;;;;;12.25;5.50;;;12.80;99.90;;;;;;5088904;28;20047;-60
2020/12/24 16:00:56;;;;;;;12.05;4.82;;;12.80;99.90;;;;;;5081989;28;20043;-59
2020/12/24 16:04:00;;;;;;;11.68;5.05;;;12.80;99.90;;;;;;5098243;28;20445;-59